This is the latest recevied weather packets stored in our database for station/object KG7BDA. If no packets are shown the sender has not sent any weather packets the latest 10 day(s).
| Time | Temp. | Humidity | Pressure | Rain* | Wind** | Luminosity | Snow |
|---|---|---|---|---|---|---|---|
| 1777875716 | 17.78° C | 40% | 1008.8 hPa | 0 mm | - | - | - |
| 1777875677 | 17.78° C | 40% | 1008.8 hPa | 0 mm | - | - | - |
| 1777875316 | 16.67° C | 41% | 1008.8 hPa | 0 mm | - | - | - |
| 1777874957 | 16.67° C | 42% | 1008.9 hPa | 0 mm | - | - | - |
| 1777874596 | 17.22° C | 41% | 1009 hPa | 0 mm | - | - | - |
| 1777874236 | 17.22° C | 40% | 1008.9 hPa | 0 mm | - | - | - |
| 1777873926 | 17.22° C | 41% | 1008.8 hPa | 0 mm | - | - | - |
| 1777873877 | 17.22° C | 41% | 1008.8 hPa | 0 mm | - | - | - |
| 1777873517 | 17.22° C | 42% | 1008.8 hPa | 0 mm | - | - | - |
| 1777873156 | 17.22° C | 42% | 1008.7 hPa | 0 mm | - | - | - |
| 1777872796 | 16.67° C | 44% | 1008.8 hPa | 0 mm | - | - | - |
| 1777872438 | 17.22° C | 42% | 1008.7 hPa | 0 mm | - | - | - |
| 1777872077 | 16.67° C | 43% | 1008.7 hPa | 0 mm | - | - | - |
| 1777871716 | 16.11° C | 45% | 1008.9 hPa | 0 mm | - | - | - |
| 1777871357 | 16.11° C | 45% | 1008.8 hPa | 0 mm | - | - | - |
| 1777870997 | 15.56° C | 48% | 1008.7 hPa | 0 mm | - | - | - |
| 1777870637 | 16.11° C | 46% | 1008.7 hPa | 0 mm | - | - | - |
| 1777870277 | 16.11° C | 44% | 1008.8 hPa | 0 mm | - | - | - |
| 1777869966 | 16.67° C | 43% | 1008.9 hPa | 0 mm | - | - | - |
| 1777869917 | 16.67° C | 43% | 1008.9 hPa | 0 mm | - | - | - |
| 1777869557 | 17.22° C | 42% | 1009 hPa | 0 mm | - | - | - |
| 1777869197 | 17.78° C | 41% | 1008.8 hPa | 0 mm | - | - | - |
| 1777868837 | 17.78° C | 40% | 1008.9 hPa | 0 mm | - | - | - |
| 1777868476 | 18.33° C | 39% | 1008.8 hPa | 0 mm | - | - | - |
| 1777868117 | 18.33° C | 39% | 1008.7 hPa | 0 mm | - | - | - |
* Rain latest hour (hover to see other rain measurements)
** Current wind speed in m/s (hover to see current wind gust speed)